createdAt,value
2018-08-30T00:01:59.015Z,98067.09
2018-08-30T00:04:26.255Z,98061.02
2018-08-30T00:06:53.493Z,98066.96
2018-08-30T00:09:20.700Z,98070.73
2018-08-30T00:11:47.937Z,98068.44
2018-08-30T00:14:15.141Z,98072.67
2018-08-30T00:16:42.410Z,98068.86
2018-08-30T00:22:01.560Z,98079.03
2018-08-30T00:24:28.777Z,98081.97
2018-08-30T00:26:56.013Z,98078.08
2018-08-30T00:29:23.246Z,98074.67
2018-08-30T00:31:50.467Z,98079.84
2018-08-30T00:34:17.671Z,98081.66
2018-08-30T00:36:44.915Z,98085.17
2018-08-30T00:39:12.159Z,98080.20
2018-08-30T00:41:39.447Z,98073.42
2018-08-30T00:44:06.669Z,98075.30
2018-08-30T00:46:33.930Z,98085.72
2018-08-30T00:49:01.138Z,98076.49
2018-08-30T00:51:28.382Z,98073.71
2018-08-30T00:53:55.593Z,98072.86
2018-08-30T00:56:22.830Z,98071.89
2018-08-30T00:58:50.054Z,98073.71
2018-08-30T01:01:17.273Z,98073.59
2018-08-30T01:03:44.483Z,98078.45
2018-08-30T01:06:11.809Z,98078.34
2018-08-30T01:08:39.094Z,98091.89
2018-08-30T01:11:06.627Z,98092.89
2018-08-30T01:13:33.870Z,98090.99
2018-08-30T01:16:01.085Z,98091.92
2018-08-30T01:18:28.340Z,98097.01
2018-08-30T01:20:55.631Z,98097.13
2018-08-30T01:23:22.897Z,98099.05
2018-08-30T01:25:50.141Z,98092.05
2018-08-30T01:28:17.365Z,98094.28
2018-08-30T01:30:44.629Z,98094.72
2018-08-30T01:33:11.833Z,98093.50
2018-08-30T01:35:39.242Z,98099.27
2018-08-30T01:38:06.622Z,98101.42
2018-08-30T01:40:33.891Z,98103.34
2018-08-30T01:43:01.146Z,98101.35
2018-08-30T01:45:28.344Z,98105.58
2018-08-30T01:47:55.578Z,98100.91
2018-08-30T01:50:22.789Z,98100.40
2018-08-30T01:52:50.104Z,98101.06
2018-08-30T01:55:17.341Z,98106.52
2018-08-30T01:57:44.597Z,98108.70
2018-08-30T02:00:11.824Z,98117.97
2018-08-30T02:02:39.049Z,98124.75
2018-08-30T02:05:06.320Z,98136.27
2018-08-30T02:07:33.536Z,98135.53
2018-08-30T02:10:00.758Z,98134.19
2018-08-30T02:12:28.030Z,98138.20
2018-08-30T02:14:55.246Z,98132.12
2018-08-30T02:17:22.467Z,98139.64
2018-08-30T02:19:49.702Z,98142.20
2018-08-30T02:22:16.944Z,98145.50
2018-08-30T02:24:44.149Z,98141.42
2018-08-30T02:27:11.374Z,98141.05
2018-08-30T02:29:38.642Z,98153.98
2018-08-30T02:32:05.963Z,98151.91
2018-08-30T02:34:33.176Z,98153.59
2018-08-30T02:37:00.445Z,98157.73
2018-08-30T02:39:27.712Z,98151.75
2018-08-30T02:41:54.917Z,98151.03
2018-08-30T02:44:22.117Z,98156.83
2018-08-30T02:46:49.367Z,98149.81
2018-08-30T02:49:16.586Z,98148.90
2018-08-30T02:51:43.813Z,98145.58
2018-08-30T02:54:11.005Z,98158.42
2018-08-30T02:56:38.235Z,98146.07
2018-08-30T02:59:05.523Z,98148.47
2018-08-30T03:01:32.763Z,98154.75
2018-08-30T03:03:59.997Z,98163.02
2018-08-30T03:06:27.344Z,98155.98
2018-08-30T03:08:54.538Z,98161.25
2018-08-30T03:11:21.759Z,98161.52
2018-08-30T03:13:48.990Z,98168.93
2018-08-30T03:16:16.213Z,98171.48
2018-08-30T03:18:45.557Z,98158.69
2018-08-30T03:21:14.057Z,98160.88
2018-08-30T03:23:42.324Z,98168.00
2018-08-30T03:26:09.566Z,98167.62
2018-08-30T03:28:36.849Z,98168.38
2018-08-30T03:31:04.267Z,98174.17
2018-08-30T03:33:31.514Z,98176.18
2018-08-30T03:35:58.739Z,98178.84
2018-08-30T03:38:25.989Z,98183.45
2018-08-30T03:40:53.216Z,98180.61
2018-08-30T03:43:20.470Z,98179.34
2018-08-30T03:45:47.732Z,98176.68
2018-08-30T03:48:14.953Z,98177.64
2018-08-30T03:50:42.173Z,98186.58
2018-08-30T03:53:09.397Z,98182.48
2018-08-30T03:55:36.610Z,98180.88
2018-08-30T03:58:03.905Z,98180.50
2018-08-30T04:00:31.110Z,98184.97
2018-08-30T04:02:58.347Z,98184.11
2018-08-30T04:05:25.576Z,98188.10
2018-08-30T04:07:52.818Z,98189.44
2018-08-30T04:10:20.076Z,98192.85
2018-08-30T04:12:47.311Z,98195.89
2018-08-30T04:15:14.541Z,98199.88
2018-08-30T04:17:41.790Z,98199.12
2018-08-30T04:20:09.037Z,98195.13
2018-08-30T04:22:36.304Z,98198.17
2018-08-30T04:25:03.543Z,98194.75
2018-08-30T04:27:30.802Z,98203.69
2018-08-30T04:29:58.029Z,98206.14
2018-08-30T04:32:25.317Z,98206.90
2018-08-30T04:34:52.560Z,98202.15
2018-08-30T04:37:19.813Z,98206.72
2018-08-30T04:39:47.064Z,98200.26
2018-08-30T04:42:14.307Z,98206.98
2018-08-30T04:44:41.585Z,98213.34
2018-08-30T04:47:08.805Z,98214.30
2018-08-30T04:49:36.066Z,98213.55
2018-08-30T04:52:03.380Z,98219.63
2018-08-30T04:54:30.627Z,98221.14
2018-08-30T04:56:57.850Z,98233.50
2018-08-30T04:59:25.104Z,98228.81
2018-08-30T05:01:52.385Z,98230.62
2018-08-30T05:04:20.486Z,98232.52
2018-08-30T05:06:47.722Z,98237.62
2018-08-30T05:09:14.974Z,98238.95
2018-08-30T05:11:42.224Z,98236.58
2018-08-30T05:14:09.687Z,98232.75
2018-08-30T05:16:37.422Z,98230.66
2018-08-30T05:19:04.911Z,98237.41
2018-08-30T05:21:32.436Z,98244.16
2018-08-30T05:23:59.705Z,98248.14
2018-08-30T05:26:26.959Z,98244.25
2018-08-30T05:28:54.193Z,98252.98
2018-08-30T05:31:21.469Z,98244.25
2018-08-30T05:33:48.733Z,98249.72
2018-08-30T05:36:15.947Z,98253.23
2018-08-30T05:38:43.282Z,98259.56
2018-08-30T05:41:10.906Z,98264.63
2018-08-30T05:43:38.399Z,98261.69
2018-08-30T05:46:05.722Z,98261.22
2018-08-30T05:48:33.025Z,98271.80
2018-08-30T05:51:01.542Z,98275.59
2018-08-30T05:53:29.790Z,98278.16
2018-08-30T05:55:58.260Z,98284.52
2018-08-30T05:58:26.462Z,98284.67
2018-08-30T06:00:54.663Z,98291.17
2018-08-30T06:03:21.955Z,98293.27
2018-08-30T06:05:49.212Z,98293.55
2018-08-30T06:08:16.503Z,98293.83
2018-08-30T06:10:43.813Z,98307.09
2018-08-30T06:13:11.104Z,98309.05
2018-08-30T06:15:38.334Z,98308.77
2018-08-30T06:18:05.649Z,98306.05
2018-08-30T06:20:32.917Z,98311.94
2018-08-30T06:23:00.213Z,98309.62
2018-08-30T06:25:27.490Z,98318.92
2018-08-30T06:27:54.728Z,98321.00
2018-08-30T06:30:22.022Z,98331.55
2018-08-30T06:32:49.293Z,98329.89
2018-08-30T06:35:16.537Z,98321.86
2018-08-30T06:37:43.835Z,98331.63
2018-08-30T06:40:11.097Z,98334.05
2018-08-30T06:42:38.329Z,98331.69
2018-08-30T06:45:06.142Z,98342.89
2018-08-30T06:47:33.391Z,98348.12
2018-08-30T06:50:00.624Z,98353.81
2018-08-30T06:52:27.903Z,98351.25
2018-08-30T06:54:57.032Z,98356.95
2018-08-30T06:57:24.304Z,98363.12
2018-08-30T06:59:51.552Z,98365.34
2018-08-30T07:02:18.771Z,98377.68
2018-08-30T07:04:46.224Z,98373.78
2018-08-30T07:07:13.465Z,98376.30
2018-08-30T07:09:40.754Z,98386.30
2018-08-30T07:12:08.026Z,98388.42
2018-08-30T07:14:49.607Z,98395.80
2018-08-30T07:17:31.276Z,98401.52
2018-08-30T07:20:14.298Z,98406.20
2018-08-30T07:22:56.283Z,98401.53
2018-08-30T07:25:37.934Z,98411.82
2018-08-30T07:28:05.187Z,98424.58
2018-08-30T07:30:32.441Z,98429.09
2018-08-30T07:32:59.665Z,98429.73
2018-08-30T07:35:27.649Z,98431.61
2018-08-30T07:37:54.878Z,98430.89
2018-08-30T07:40:22.122Z,98441.22
2018-08-30T07:42:49.343Z,98441.05
2018-08-30T07:45:16.598Z,98449.34
2018-08-30T07:47:43.840Z,98460.44
2018-08-30T07:50:11.093Z,98467.03
2018-08-30T07:52:38.304Z,98475.42
2018-08-30T07:55:05.534Z,98476.78
2018-08-30T07:57:32.772Z,98481.95
2018-08-30T08:00:00.129Z,98490.41
2018-08-30T08:02:27.392Z,98485.61
2018-08-30T08:04:54.634Z,98486.42
2018-08-30T08:07:21.949Z,98489.45
2018-08-30T08:09:49.170Z,98498.02
2018-08-30T08:12:16.397Z,98510.62
2018-08-30T08:14:43.684Z,98511.30
2018-08-30T08:17:10.925Z,98506.39
2018-08-30T08:19:38.214Z,98508.28
2018-08-30T08:22:05.626Z,98513.84
2018-08-30T08:24:35.207Z,98524.31
2018-08-30T08:27:02.489Z,98520.49
2018-08-30T08:29:29.946Z,98525.55
2018-08-30T08:31:57.226Z,98530.86
2018-08-30T08:34:24.472Z,98532.44
2018-08-30T08:36:51.782Z,98537.59
2018-08-30T08:39:19.095Z,98541.27
2018-08-30T08:41:46.395Z,98542.68
2018-08-30T08:44:13.651Z,98553.90
2018-08-30T08:46:40.899Z,98554.51
2018-08-30T08:49:08.218Z,98554.79
2018-08-30T08:51:35.500Z,98560.57
2018-08-30T08:54:02.883Z,98566.73
2018-08-30T08:56:30.158Z,98574.31
2018-08-30T08:58:57.492Z,98573.73
2018-08-30T09:03:58.830Z,98581.16
2018-08-30T09:06:26.086Z,98584.02
2018-08-30T09:08:53.441Z,98579.17
2018-08-30T09:11:20.748Z,98586.12
2018-08-30T09:13:48.254Z,98590.96
2018-08-30T09:16:15.530Z,98590.02
2018-08-30T09:18:42.893Z,98595.56
2018-08-30T09:21:10.268Z,98591.93
2018-08-30T09:23:37.525Z,98597.36
2018-08-30T09:26:04.966Z,98605.20
2018-08-30T09:28:32.300Z,98610.31
2018-08-30T09:30:59.660Z,98608.98
2018-08-30T09:33:26.816Z,98610.62
2018-08-30T09:35:54.301Z,98607.98
2018-08-30T09:38:21.568Z,98602.55
2018-08-30T09:40:48.850Z,98606.05
2018-08-30T09:43:16.077Z,98606.17
2018-08-30T09:45:43.346Z,98605.55
2018-08-30T09:48:10.609Z,98611.40
2018-08-30T09:50:37.844Z,98612.73
2018-08-30T09:53:05.121Z,98616.35
2018-08-30T09:55:32.350Z,98617.31
2018-08-30T09:57:59.605Z,98616.27
2018-08-30T10:00:32.515Z,98614.16
2018-08-30T10:02:59.805Z,98621.73
2018-08-30T10:05:27.064Z,98624.78
2018-08-30T10:07:54.412Z,98625.72
2018-08-30T10:10:21.661Z,98629.86
2018-08-30T10:12:48.909Z,98627.08
2018-08-30T10:15:16.158Z,98625.12
2018-08-30T10:17:43.577Z,98624.06
2018-08-30T10:20:10.894Z,98634.34
2018-08-30T10:22:38.237Z,98637.34
2018-08-30T10:25:05.969Z,98636.51
2018-08-30T10:27:33.289Z,98629.97
2018-08-30T10:30:00.561Z,98640.98
2018-08-30T10:32:28.043Z,98639.27
2018-08-30T10:34:55.333Z,98641.92
2018-08-30T10:37:22.701Z,98637.98
2018-08-30T10:39:49.981Z,98645.25
2018-08-30T10:42:17.244Z,98648.30
2018-08-30T10:44:44.682Z,98647.23
2018-08-30T10:47:11.945Z,98646.30
2018-08-30T10:49:39.313Z,98655.72
2018-08-30T10:52:06.765Z,98646.97
2018-08-30T10:54:34.232Z,98649.08
2018-08-30T10:57:01.553Z,98649.42
2018-08-30T10:59:28.955Z,98650.00
2018-08-30T11:01:56.367Z,98650.13
2018-08-30T11:04:23.776Z,98657.08
2018-08-30T11:06:51.074Z,98660.17
2018-08-30T11:09:18.511Z,98659.91
2018-08-30T11:11:45.850Z,98654.50
2018-08-30T11:14:13.710Z,98668.74
2018-08-30T11:16:41.039Z,98660.89
2018-08-30T11:19:08.487Z,98659.27
2018-08-30T11:21:35.782Z,98665.36
2018-08-30T11:24:03.063Z,98668.25
2018-08-30T11:26:30.285Z,98669.28
2018-08-30T11:28:57.882Z,98669.02
2018-08-30T11:31:25.145Z,98673.56
2018-08-30T11:33:52.437Z,98670.91
2018-08-30T11:36:27.910Z,98678.42
2018-08-30T11:38:55.444Z,98676.71
2018-08-30T11:41:22.769Z,98677.02
2018-08-30T11:43:50.090Z,98674.22
2018-08-30T11:46:17.410Z,98678.81
2018-08-30T11:48:44.730Z,98678.03
2018-08-30T11:51:12.060Z,98675.97
2018-08-30T11:53:39.623Z,98675.75
2018-08-30T11:56:06.924Z,98673.09
2018-08-30T11:58:34.375Z,98670.80
2018-08-30T12:01:01.882Z,98678.41
2018-08-30T12:03:29.361Z,98674.00
2018-08-30T12:05:56.687Z,98683.86
2018-08-30T12:08:24.066Z,98690.17
2018-08-30T12:10:51.460Z,98684.33
2018-08-30T12:13:18.709Z,98685.39
2018-08-30T12:15:45.959Z,98685.34
2018-08-30T12:18:13.424Z,98683.05
2018-08-30T12:20:40.933Z,98687.22
2018-08-30T12:23:08.159Z,98687.33
2018-08-30T12:25:36.287Z,98691.81
2018-08-30T12:28:03.564Z,98684.73
2018-08-30T12:30:30.849Z,98694.70
2018-08-30T12:32:58.099Z,98697.45
2018-08-30T12:35:25.600Z,98695.12
2018-08-30T12:37:52.921Z,98697.10
2018-08-30T12:40:21.119Z,98699.67
2018-08-30T12:42:48.585Z,98706.04
2018-08-30T12:45:15.722Z,98702.45
2018-08-30T12:47:42.998Z,98705.08
2018-08-30T12:50:10.365Z,98707.53
2018-08-30T12:52:37.874Z,98707.49
2018-08-30T12:55:05.398Z,98707.83
2018-08-30T12:57:32.667Z,98710.95
2018-08-30T12:59:59.939Z,98712.36
2018-08-30T13:02:27.735Z,98718.78
2018-08-30T13:04:55.013Z,98718.38
2018-08-30T13:07:24.173Z,98727.34
2018-08-30T13:09:51.687Z,98721.30
2018-08-30T13:12:19.040Z,98723.26
2018-08-30T13:14:46.467Z,98723.79
2018-08-30T13:17:13.651Z,98719.60
2018-08-30T13:19:41.255Z,98718.94
2018-08-30T13:22:08.535Z,98724.94
2018-08-30T13:24:35.925Z,98727.31
2018-08-30T13:27:03.277Z,98733.00
2018-08-30T13:29:30.449Z,98738.92
2018-08-30T13:31:57.856Z,98731.41
2018-08-30T13:34:25.310Z,98738.50
2018-08-30T13:36:52.721Z,98735.36
2018-08-30T13:39:20.164Z,98734.30
2018-08-30T13:41:47.045Z,98745.95
2018-08-30T13:44:14.334Z,98749.27
2018-08-30T13:46:41.855Z,98741.89
2018-08-30T13:49:10.109Z,98743.30
2018-08-30T13:51:37.406Z,98749.88
2018-08-30T13:54:04.915Z,98751.63
2018-08-30T13:56:32.117Z,98757.16
2018-08-30T13:58:59.382Z,98764.84
2018-08-30T14:01:26.763Z,98764.67
2018-08-30T14:03:53.728Z,98764.84
2018-08-30T14:06:21.133Z,98762.67
2018-08-30T14:08:48.419Z,98765.63
2018-08-30T14:11:15.667Z,98755.34
2018-08-30T14:13:43.689Z,98757.34
2018-08-30T14:16:11.281Z,98759.33
2018-08-30T14:18:38.532Z,98756.52
2018-08-30T14:21:05.795Z,98749.02
2018-08-30T14:23:33.365Z,98754.84
2018-08-30T14:26:00.635Z,98749.27
2018-08-30T14:28:27.885Z,98749.59
2018-08-30T14:30:55.145Z,98749.20
2018-08-30T14:33:22.426Z,98748.08
2018-08-30T14:35:49.672Z,98739.94
2018-08-30T14:38:16.966Z,98737.01
2018-08-30T14:40:44.266Z,98741.91
2018-08-30T14:43:11.449Z,98735.15
2018-08-30T14:45:38.748Z,98741.23
2018-08-30T14:48:06.065Z,98737.14
2018-08-30T14:50:33.448Z,98729.02
2018-08-30T14:53:00.663Z,98733.42
2018-08-30T14:55:27.922Z,98729.59
2018-08-30T14:57:55.125Z,98730.25
2018-08-30T15:00:22.673Z,98726.63
2018-08-30T15:02:49.842Z,98727.88
2018-08-30T15:05:17.268Z,98724.80
2018-08-30T15:07:44.369Z,98736.45
2018-08-30T15:10:11.686Z,98734.32
2018-08-30T15:12:38.938Z,98737.56
2018-08-30T15:15:06.275Z,98742.91
2018-08-30T15:17:33.622Z,98740.81
2018-08-30T15:20:01.057Z,98739.42
2018-08-30T15:22:28.363Z,98749.02
2018-08-30T15:24:55.628Z,98743.56
2018-08-30T15:27:22.890Z,98741.63
2018-08-30T15:29:50.165Z,98745.84
2018-08-30T15:32:17.378Z,98744.76
2018-08-30T15:34:44.617Z,98740.66
2018-08-30T15:37:11.847Z,98745.97
2018-08-30T15:39:39.087Z,98745.84
2018-08-30T15:42:06.330Z,98754.78
2018-08-30T15:44:33.745Z,98745.12
2018-08-30T15:47:01.039Z,98749.10
2018-08-30T15:49:28.660Z,98747.62
2018-08-30T15:51:56.018Z,98750.48
2018-08-30T15:54:23.230Z,98753.31
2018-08-30T15:56:50.498Z,98752.17
2018-08-30T15:59:17.812Z,98753.13
2018-08-30T16:01:45.014Z,98750.28
2018-08-30T16:04:12.298Z,98746.73
2018-08-30T16:06:39.593Z,98747.70
2018-08-30T16:09:08.213Z,98741.98
2018-08-30T16:11:35.490Z,98742.20
2018-08-30T16:14:02.729Z,98737.59
2018-08-30T16:16:29.969Z,98741.69
2018-08-30T16:18:57.266Z,98741.03
2018-08-30T16:21:24.632Z,98739.38
2018-08-30T16:23:51.849Z,98732.93
2018-08-30T16:26:19.108Z,98734.24
2018-08-30T16:28:46.344Z,98739.66
2018-08-30T16:31:13.641Z,98740.61
2018-08-30T16:33:40.907Z,98739.02
2018-08-30T16:36:08.194Z,98735.87
2018-08-30T16:38:35.592Z,98732.34
2018-08-30T16:41:02.861Z,98740.83
2018-08-30T16:43:30.115Z,98736.73
2018-08-30T16:45:57.527Z,98746.45
2018-08-30T16:48:24.913Z,98737.84
2018-08-30T16:50:52.151Z,98741.44
2018-08-30T16:53:19.450Z,98743.81
2018-08-30T16:55:46.680Z,98747.16
2018-08-30T16:58:13.974Z,98748.84
2018-08-30T17:00:41.219Z,98750.74
2018-08-30T17:03:08.685Z,98748.77
2018-08-30T17:05:35.949Z,98753.69
2018-08-30T17:08:03.195Z,98755.68
2018-08-30T17:10:30.473Z,98757.35
2018-08-30T17:12:58.708Z,98762.55
2018-08-30T17:15:25.926Z,98761.97
2018-08-30T17:17:53.254Z,98760.16
2018-08-30T17:20:27.025Z,98756.32
2018-08-30T17:22:54.299Z,98758.84
2018-08-30T17:25:21.604Z,98760.61
2018-08-30T17:27:48.770Z,98763.46
2018-08-30T17:30:15.961Z,98764.31
2018-08-30T17:32:43.294Z,98765.59
2018-08-30T17:35:10.482Z,98763.11
2018-08-30T17:37:37.739Z,98763.35
2018-08-30T17:40:05.308Z,98764.57
2018-08-30T17:42:32.600Z,98770.31
2018-08-30T17:44:59.837Z,98772.36
2018-08-30T17:47:27.091Z,98779.67
2018-08-30T17:49:54.366Z,98780.70
2018-08-30T17:52:21.646Z,98781.96
2018-08-30T17:54:48.914Z,98787.25
2018-08-30T17:57:16.203Z,98792.26
2018-08-30T17:59:43.548Z,98792.66
2018-08-30T18:02:10.922Z,98798.45
2018-08-30T18:04:38.406Z,98804.05
2018-08-30T18:07:05.880Z,98803.66
2018-08-30T18:09:33.182Z,98809.38
2018-08-30T18:12:00.428Z,98813.06
2018-08-30T18:14:27.814Z,98819.06
2018-08-30T18:16:55.045Z,98822.58
2018-08-30T18:19:22.303Z,98827.20
2018-08-30T18:21:49.572Z,98831.95
2018-08-30T18:24:16.879Z,98829.19
2018-08-30T18:26:44.206Z,98830.58
2018-08-30T18:29:11.472Z,98830.31
2018-08-30T18:31:38.804Z,98838.66
2018-08-30T18:34:06.082Z,98842.88
2018-08-30T18:36:33.442Z,98844.02
2018-08-30T18:39:00.658Z,98848.49
2018-08-30T18:41:27.976Z,98844.31
2018-08-30T18:43:55.314Z,98849.47
2018-08-30T18:46:22.641Z,98848.14
2018-08-30T18:48:49.975Z,98850.33
2018-08-30T18:51:17.326Z,98855.52
2018-08-30T18:53:47.466Z,98863.17
2018-08-30T18:56:14.719Z,98855.22
2018-08-30T18:58:42.034Z,98870.49
2018-08-30T19:01:09.446Z,98872.16
2018-08-30T19:03:36.798Z,98871.58
2018-08-30T19:06:04.172Z,98871.95
2018-08-30T19:08:31.496Z,98875.62
2018-08-30T19:10:58.726Z,98877.34
2018-08-30T19:13:26.213Z,98884.16
2018-08-30T19:15:59.153Z,98886.56
2018-08-30T19:18:32.233Z,98888.03
2018-08-30T19:20:59.549Z,98886.63
2018-08-30T19:23:26.920Z,98900.68
2018-08-30T19:25:54.175Z,98896.28
2018-08-30T19:28:21.461Z,98898.55
2018-08-30T19:30:48.715Z,98905.30
2018-08-30T19:33:16.014Z,98901.71
2018-08-30T19:35:48.829Z,98903.17
2018-08-30T19:38:16.170Z,98900.02
2018-08-30T19:40:49.180Z,98909.46
2018-08-30T19:43:23.149Z,98910.05
2018-08-30T19:45:50.402Z,98906.94
2018-08-30T19:48:17.748Z,98908.27
2018-08-30T19:50:45.048Z,98913.97
2018-08-30T19:53:12.349Z,98911.61
2018-08-30T19:55:39.826Z,98915.00
2018-08-30T19:58:07.168Z,98924.05
2018-08-30T20:00:34.385Z,98921.67
2018-08-30T20:03:01.716Z,98931.41
2018-08-30T20:05:29.839Z,98928.48
2018-08-30T20:07:57.218Z,98929.05
2018-08-30T20:10:24.606Z,98924.87
2018-08-30T20:12:51.858Z,98931.92
2018-08-30T20:15:19.087Z,98931.26
2018-08-30T20:17:46.330Z,98938.62
2018-08-30T20:20:13.545Z,98928.94
2018-08-30T20:22:40.816Z,98940.47
2018-08-30T20:25:08.022Z,98944.61
2018-08-30T20:27:35.514Z,98941.16
2018-08-30T20:30:02.832Z,98945.78
2018-08-30T20:32:30.074Z,98944.28
2018-08-30T20:34:57.298Z,98950.63
2018-08-30T20:37:24.506Z,98960.36
2018-08-30T20:39:52.270Z,98960.88
2018-08-30T20:42:19.482Z,98963.99
2018-08-30T20:44:46.906Z,98963.59
2018-08-30T20:47:14.214Z,98964.33
2018-08-30T20:49:41.787Z,98970.03
2018-08-30T20:52:09.070Z,98966.89
2018-08-30T20:54:36.298Z,98967.30
2018-08-30T20:57:03.774Z,98961.04
2018-08-30T20:59:31.315Z,98967.36
2018-08-30T21:01:58.573Z,98964.33
2018-08-30T21:04:25.817Z,98973.02
2018-08-30T21:06:53.041Z,98969.31
2018-08-30T21:09:20.306Z,98976.14
2018-08-30T21:11:47.546Z,98975.67
2018-08-30T21:14:14.793Z,98980.30
2018-08-30T21:16:41.987Z,98985.78
2018-08-30T21:19:10.201Z,98980.97
2018-08-30T21:21:38.498Z,98977.23
2018-08-30T21:24:05.782Z,98978.69
2018-08-30T21:26:32.987Z,98979.87
2018-08-30T21:29:00.222Z,98984.90
2018-08-30T21:31:27.430Z,98976.29
2018-08-30T21:33:54.786Z,98990.15
2018-08-30T21:36:21.993Z,98990.20
2018-08-30T21:38:49.249Z,98991.31
2018-08-30T21:41:16.461Z,98989.31
2018-08-30T21:43:43.706Z,98985.34
2018-08-30T21:46:11.004Z,98995.60
2018-08-30T21:48:38.279Z,98995.20
2018-08-30T21:51:05.525Z,98988.29
2018-08-30T21:53:32.754Z,98987.09
2018-08-30T21:56:00.011Z,98993.38
2018-08-30T21:58:27.204Z,98995.23
2018-08-30T22:00:54.454Z,99001.63
2018-08-30T22:03:21.697Z,98992.93
2018-08-30T22:05:48.939Z,98999.13
2018-08-30T22:08:16.165Z,98988.69
2018-08-30T22:10:43.570Z,98990.11
2018-08-30T22:13:10.930Z,98989.30
2018-08-30T22:15:38.125Z,98992.47
2018-08-30T22:18:05.383Z,98992.52
2018-08-30T22:20:32.985Z,98994.42
2018-08-30T22:23:00.200Z,98981.02
2018-08-30T22:25:27.425Z,98984.64
2018-08-30T22:27:54.653Z,98975.97
2018-08-30T22:30:21.893Z,98983.59
2018-08-30T22:32:49.086Z,98989.95
2018-08-30T22:35:16.309Z,98987.00
2018-08-30T22:37:43.521Z,98992.45
2018-08-30T22:40:10.769Z,98990.48
2018-08-30T22:42:37.977Z,98989.83
2018-08-30T22:45:05.422Z,98987.39
2018-08-30T22:47:33.052Z,98989.28
2018-08-30T22:50:00.303Z,98992.98
2018-08-30T22:52:27.922Z,98991.26
2018-08-30T22:54:55.503Z,98992.27
2018-08-30T22:57:22.723Z,98992.31
2018-08-30T22:59:49.967Z,98992.78
2018-08-30T23:02:17.159Z,98997.66
2018-08-30T23:04:44.406Z,98995.02
2018-08-30T23:07:11.673Z,98990.33
2018-08-30T23:09:38.894Z,98993.40
2018-08-30T23:12:06.245Z,98993.91
2018-08-30T23:14:33.505Z,98988.17
2018-08-30T23:17:00.853Z,98985.48
2018-08-30T23:19:28.109Z,98984.59
2018-08-30T23:21:55.349Z,98981.81
2018-08-30T23:24:22.557Z,98985.27
2018-08-30T23:26:49.797Z,98976.58
2018-08-30T23:29:16.982Z,98979.75
2018-08-30T23:31:44.199Z,98978.81
2018-08-30T23:34:11.405Z,98982.66
2018-08-30T23:36:38.625Z,98983.80
2018-08-30T23:39:07.505Z,98974.30
2018-08-30T23:41:34.749Z,98980.52
2018-08-30T23:44:01.942Z,98978.80
2018-08-30T23:46:29.169Z,98975.70
2018-08-30T23:48:56.362Z,98975.20
2018-08-30T23:51:23.666Z,98976.48
2018-08-30T23:53:50.857Z,98977.25
2018-08-30T23:56:18.176Z,98981.70
2018-08-30T23:58:56.977Z,98977.89
